sensor_id;sensor_type;location;lat;lon;timestamp;P1;durP1;ratioP1;P2;durP2;ratioP2
12869;SDS011;6503;48.572;13.460;2023-04-04T00:01:15;5.45;;;2.97;;
12869;SDS011;6503;48.572;13.460;2023-04-04T00:06:41;3.42;;;2.28;;
12869;SDS011;6503;48.572;13.460;2023-04-04T00:17:31;4.50;;;2.60;;
12869;SDS011;6503;48.572;13.460;2023-04-04T00:20:15;6.13;;;2.60;;
12869;SDS011;6503;48.572;13.460;2023-04-04T00:31:52;4.53;;;2.70;;
12869;SDS011;6503;48.572;13.460;2023-04-04T00:34:36;4.35;;;2.55;;
12869;SDS011;6503;48.572;13.460;2023-04-04T00:37:20;4.90;;;2.47;;
12869;SDS011;6503;48.572;13.460;2023-04-04T00:40:02;7.03;;;2.35;;
12869;SDS011;6503;48.572;13.460;2023-04-04T00:42:50;5.18;;;2.20;;
12869;SDS011;6503;48.572;13.460;2023-04-04T00:45:28;5.90;;;2.60;;
12869;SDS011;6503;48.572;13.460;2023-04-04T00:48:17;4.43;;;2.53;;
12869;SDS011;6503;48.572;13.460;2023-04-04T00:51:01;3.30;;;2.25;;
12869;SDS011;6503;48.572;13.460;2023-04-04T00:53:42;7.30;;;2.47;;
12869;SDS011;6503;48.572;13.460;2023-04-04T00:56:27;5.05;;;2.63;;
12869;SDS011;6503;48.572;13.460;2023-04-04T00:59:24;4.38;;;2.40;;
12869;SDS011;6503;48.572;13.460;2023-04-04T01:02:14;8.93;;;2.88;;
12869;SDS011;6503;48.572;13.460;2023-04-04T01:04:59;4.88;;;2.58;;
12869;SDS011;6503;48.572;13.460;2023-04-04T01:07:47;5.05;;;2.42;;
12869;SDS011;6503;48.572;13.460;2023-04-04T01:10:28;5.40;;;2.30;;
12869;SDS011;6503;48.572;13.460;2023-04-04T02:17:27;4.65;;;2.85;;
12869;SDS011;6503;48.572;13.460;2023-04-04T02:30:13;3.70;;;2.83;;
12869;SDS011;6503;48.572;13.460;2023-04-04T02:38:00;4.28;;;2.75;;
12869;SDS011;6503;48.572;13.460;2023-04-04T02:40:27;4.55;;;2.92;;
12869;SDS011;6503;48.572;13.460;2023-04-04T02:43:19;5.47;;;3.20;;
12869;SDS011;6503;48.572;13.460;2023-04-04T02:48:38;7.18;;;3.28;;
12869;SDS011;6503;48.572;13.460;2023-04-04T02:51:05;3.80;;;2.55;;
12869;SDS011;6503;48.572;13.460;2023-04-04T02:53:34;7.75;;;3.35;;
12869;SDS011;6503;48.572;13.460;2023-04-04T02:56:02;5.63;;;2.95;;
12869;SDS011;6503;48.572;13.460;2023-04-04T02:58:30;4.20;;;2.70;;
12869;SDS011;6503;48.572;13.460;2023-04-04T03:00:59;5.20;;;2.95;;
12869;SDS011;6503;48.572;13.460;2023-04-04T03:06:04;4.78;;;2.55;;
12869;SDS011;6503;48.572;13.460;2023-04-04T03:08:32;6.80;;;3.47;;
12869;SDS011;6503;48.572;13.460;2023-04-04T03:11:02;5.82;;;3.25;;
12869;SDS011;6503;48.572;13.460;2023-04-04T03:13:30;3.65;;;2.55;;
12869;SDS011;6503;48.572;13.460;2023-04-04T03:15:59;4.55;;;3.05;;
12869;SDS011;6503;48.572;13.460;2023-04-04T03:18:28;3.88;;;2.50;;
12869;SDS011;6503;48.572;13.460;2023-04-04T03:23:26;5.85;;;3.03;;
12869;SDS011;6503;48.572;13.460;2023-04-04T03:28:31;6.78;;;3.30;;
12869;SDS011;6503;48.572;13.460;2023-04-04T03:33:28;6.78;;;2.95;;
12869;SDS011;6503;48.572;13.460;2023-04-04T03:35:57;4.28;;;2.88;;
12869;SDS011;6503;48.572;13.460;2023-04-04T03:38:25;4.18;;;2.70;;
12869;SDS011;6503;48.572;13.460;2023-04-04T03:41:00;8.18;;;3.33;;
12869;SDS011;6503;48.572;13.460;2023-04-04T03:43:28;5.90;;;3.20;;
12869;SDS011;6503;48.572;13.460;2023-04-04T03:45:59;6.22;;;3.40;;
12869;SDS011;6503;48.572;13.460;2023-04-04T03:48:31;4.68;;;2.92;;
12869;SDS011;6503;48.572;13.460;2023-04-04T03:50:59;6.75;;;3.20;;
12869;SDS011;6503;48.572;13.460;2023-04-04T03:53:26;5.35;;;3.05;;
12869;SDS011;6503;48.572;13.460;2023-04-04T03:55:54;5.55;;;3.10;;
12869;SDS011;6503;48.572;13.460;2023-04-04T03:58:25;5.15;;;3.13;;
12869;SDS011;6503;48.572;13.460;2023-04-04T04:00:54;5.03;;;3.35;;
12869;SDS011;6503;48.572;13.460;2023-04-04T04:03:37;5.53;;;3.25;;
12869;SDS011;6503;48.572;13.460;2023-04-04T04:06:07;8.23;;;3.22;;
12869;SDS011;6503;48.572;13.460;2023-04-04T04:08:37;7.10;;;3.55;;
12869;SDS011;6503;48.572;13.460;2023-04-04T04:11:05;6.45;;;2.92;;
12869;SDS011;6503;48.572;13.460;2023-04-04T04:13:33;5.65;;;3.40;;
12869;SDS011;6503;48.572;13.460;2023-04-04T04:16:03;6.50;;;3.15;;
12869;SDS011;6503;48.572;13.460;2023-04-04T04:18:30;7.13;;;3.40;;
12869;SDS011;6503;48.572;13.460;2023-04-04T04:21:04;8.38;;;3.38;;
12869;SDS011;6503;48.572;13.460;2023-04-04T04:23:33;4.35;;;3.05;;
12869;SDS011;6503;48.572;13.460;2023-04-04T04:26:01;5.78;;;3.30;;
12869;SDS011;6503;48.572;13.460;2023-04-04T04:28:28;7.35;;;3.30;;
12869;SDS011;6503;48.572;13.460;2023-04-04T04:31:02;7.13;;;3.63;;
12869;SDS011;6503;48.572;13.460;2023-04-04T04:33:29;4.38;;;3.20;;
12869;SDS011;6503;48.572;13.460;2023-04-04T04:35:58;6.05;;;3.40;;
12869;SDS011;6503;48.572;13.460;2023-04-04T04:38:36;5.40;;;3.20;;
12869;SDS011;6503;48.572;13.460;2023-04-04T04:41:04;6.22;;;3.55;;
12869;SDS011;6503;48.572;13.460;2023-04-04T04:43:32;6.72;;;3.58;;
12869;SDS011;6503;48.572;13.460;2023-04-04T04:46:00;4.05;;;2.85;;
12869;SDS011;6503;48.572;13.460;2023-04-04T04:48:30;5.97;;;3.10;;
12869;SDS011;6503;48.572;13.460;2023-04-04T04:51:12;5.18;;;3.15;;
12869;SDS011;6503;48.572;13.460;2023-04-04T04:53:42;7.53;;;3.40;;
12869;SDS011;6503;48.572;13.460;2023-04-04T04:56:10;7.95;;;4.45;;
12869;SDS011;6503;48.572;13.460;2023-04-04T04:58:37;7.00;;;3.85;;
12869;SDS011;6503;48.572;13.460;2023-04-04T05:01:05;6.78;;;3.90;;
12869;SDS011;6503;48.572;13.460;2023-04-04T05:03:32;5.53;;;3.88;;
12869;SDS011;6503;48.572;13.460;2023-04-04T05:06:01;5.00;;;3.80;;
12869;SDS011;6503;48.572;13.460;2023-04-04T05:08:31;5.53;;;3.22;;
12869;SDS011;6503;48.572;13.460;2023-04-04T05:11:09;6.72;;;3.90;;
12869;SDS011;6503;48.572;13.460;2023-04-04T05:13:36;6.47;;;3.08;;
12869;SDS011;6503;48.572;13.460;2023-04-04T05:16:07;5.32;;;3.30;;
12869;SDS011;6503;48.572;13.460;2023-04-04T05:18:48;5.60;;;3.30;;
12869;SDS011;6503;48.572;13.460;2023-04-04T05:21:16;6.43;;;3.50;;
12869;SDS011;6503;48.572;13.460;2023-04-04T05:23:52;6.13;;;3.15;;
12869;SDS011;6503;48.572;13.460;2023-04-04T05:26:25;4.87;;;3.10;;
12869;SDS011;6503;48.572;13.460;2023-04-04T05:28:54;3.92;;;2.92;;
12869;SDS011;6503;48.572;13.460;2023-04-04T05:31:23;7.32;;;3.30;;
12869;SDS011;6503;48.572;13.460;2023-04-04T05:33:56;6.55;;;3.17;;
12869;SDS011;6503;48.572;13.460;2023-04-04T05:36:25;3.88;;;2.50;;
12869;SDS011;6503;48.572;13.460;2023-04-04T05:39:09;4.78;;;3.05;;
12869;SDS011;6503;48.572;13.460;2023-04-04T06:06:40;4.68;;;2.95;;
12869;SDS011;6503;48.572;13.460;2023-04-04T06:15:31;7.45;;;3.22;;
12869;SDS011;6503;48.572;13.460;2023-04-04T06:18:34;4.68;;;3.35;;
12869;SDS011;6503;48.572;13.460;2023-04-04T06:58:09;4.82;;;3.13;;
12869;SDS011;6503;48.572;13.460;2023-04-04T07:00:36;6.20;;;3.33;;
12869;SDS011;6503;48.572;13.460;2023-04-04T07:03:09;5.50;;;3.65;;
12869;SDS011;6503;48.572;13.460;2023-04-04T07:05:51;7.00;;;3.20;;
12869;SDS011;6503;48.572;13.460;2023-04-04T07:08:28;5.72;;;3.05;;
12869;SDS011;6503;48.572;13.460;2023-04-04T07:10:58;6.63;;;3.30;;
12869;SDS011;6503;48.572;13.460;2023-04-04T07:24:46;3.35;;;3.00;;
12869;SDS011;6503;48.572;13.460;2023-04-04T07:27:16;5.07;;;2.80;;
12869;SDS011;6503;48.572;13.460;2023-04-04T07:29:49;6.65;;;3.22;;
12869;SDS011;6503;48.572;13.460;2023-04-04T07:32:16;4.80;;;2.95;;
12869;SDS011;6503;48.572;13.460;2023-04-04T07:34:58;6.05;;;3.10;;
12869;SDS011;6503;48.572;13.460;2023-04-04T07:37:35;6.13;;;3.08;;
12869;SDS011;6503;48.572;13.460;2023-04-04T07:40:13;11.18;;;3.22;;
12869;SDS011;6503;48.572;13.460;2023-04-04T07:42:55;4.60;;;2.67;;
12869;SDS011;6503;48.572;13.460;2023-04-04T07:46:02;4.53;;;2.83;;
12869;SDS011;6503;48.572;13.460;2023-04-04T07:48:58;4.47;;;2.80;;
12869;SDS011;6503;48.572;13.460;2023-04-04T07:51:53;6.15;;;2.63;;
12869;SDS011;6503;48.572;13.460;2023-04-04T07:55:04;4.93;;;3.20;;
12869;SDS011;6503;48.572;13.460;2023-04-04T08:03:45;4.93;;;2.47;;
12869;SDS011;6503;48.572;13.460;2023-04-04T08:06:14;4.50;;;2.28;;
12869;SDS011;6503;48.572;13.460;2023-04-04T08:08:42;3.28;;;2.83;;
12869;SDS011;6503;48.572;13.460;2023-04-04T08:11:11;5.13;;;3.05;;
12869;SDS011;6503;48.572;13.460;2023-04-04T08:13:55;4.28;;;2.45;;
12869;SDS011;6503;48.572;13.460;2023-04-04T08:25:38;4.18;;;3.05;;
12869;SDS011;6503;48.572;13.460;2023-04-04T08:28:33;3.42;;;2.95;;
12869;SDS011;6503;48.572;13.460;2023-04-04T08:37:33;3.95;;;2.20;;
12869;SDS011;6503;48.572;13.460;2023-04-04T08:43:16;6.13;;;3.13;;
12869;SDS011;6503;48.572;13.460;2023-04-04T08:46:46;6.35;;;2.70;;
12869;SDS011;6503;48.572;13.460;2023-04-04T08:50:40;6.05;;;4.10;;
12869;SDS011;6503;48.572;13.460;2023-04-04T08:55:59;4.43;;;2.50;;
12869;SDS011;6503;48.572;13.460;2023-04-04T09:04:54;4.72;;;2.85;;
12869;SDS011;6503;48.572;13.460;2023-04-04T09:07:46;4.95;;;2.88;;
12869;SDS011;6503;48.572;13.460;2023-04-04T09:10:21;4.22;;;3.03;;
12869;SDS011;6503;48.572;13.460;2023-04-04T09:13:43;4.60;;;2.75;;
12869;SDS011;6503;48.572;13.460;2023-04-04T09:16:18;3.88;;;2.67;;
12869;SDS011;6503;48.572;13.460;2023-04-04T09:18:49;5.85;;;4.35;;
12869;SDS011;6503;48.572;13.460;2023-04-04T09:33:42;4.72;;;2.83;;
12869;SDS011;6503;48.572;13.460;2023-04-04T09:36:29;6.05;;;2.92;;
12869;SDS011;6503;48.572;13.460;2023-04-04T09:42:50;4.30;;;2.80;;
12869;SDS011;6503;48.572;13.460;2023-04-04T09:45:19;5.78;;;3.00;;
12869;SDS011;6503;48.572;13.460;2023-04-04T09:48:03;4.80;;;3.05;;
12869;SDS011;6503;48.572;13.460;2023-04-04T10:08:59;5.55;;;3.35;;
12869;SDS011;6503;48.572;13.460;2023-04-04T10:11:35;5.72;;;2.83;;
12869;SDS011;6503;48.572;13.460;2023-04-04T10:14:33;5.43;;;2.70;;
12869;SDS011;6503;48.572;13.460;2023-04-04T10:17:18;6.57;;;3.30;;
12869;SDS011;6503;48.572;13.460;2023-04-04T10:23:28;6.82;;;2.88;;
12869;SDS011;6503;48.572;13.460;2023-04-04T10:26:14;5.70;;;2.90;;
12869;SDS011;6503;48.572;13.460;2023-04-04T10:35:21;4.85;;;2.85;;
12869;SDS011;6503;48.572;13.460;2023-04-04T10:38:37;4.28;;;2.95;;
12869;SDS011;6503;48.572;13.460;2023-04-04T10:41:34;5.13;;;2.72;;
12869;SDS011;6503;48.572;13.460;2023-04-04T10:47:22;5.65;;;2.83;;
12869;SDS011;6503;48.572;13.460;2023-04-04T10:50:13;5.30;;;3.47;;
12869;SDS011;6503;48.572;13.460;2023-04-04T10:56:04;4.45;;;3.33;;
12869;SDS011;6503;48.572;13.460;2023-04-04T11:16:37;4.35;;;3.15;;
12869;SDS011;6503;48.572;13.460;2023-04-04T11:22:23;4.78;;;2.88;;
12869;SDS011;6503;48.572;13.460;2023-04-04T11:24:59;4.10;;;3.00;;
12869;SDS011;6503;48.572;13.460;2023-04-04T11:27:48;5.47;;;3.45;;
12869;SDS011;6503;48.572;13.460;2023-04-04T11:30:18;5.88;;;3.38;;
12869;SDS011;6503;48.572;13.460;2023-04-04T11:33:06;4.60;;;3.13;;
12869;SDS011;6503;48.572;13.460;2023-04-04T11:35:47;7.68;;;3.20;;
12869;SDS011;6503;48.572;13.460;2023-04-04T11:39:06;5.13;;;2.80;;
12869;SDS011;6503;48.572;13.460;2023-04-04T11:47:32;4.07;;;2.45;;
12869;SDS011;6503;48.572;13.460;2023-04-04T11:53:09;3.65;;;2.63;;
12869;SDS011;6503;48.572;13.460;2023-04-04T11:56:01;4.60;;;3.08;;
12869;SDS011;6503;48.572;13.460;2023-04-04T11:58:35;3.97;;;2.47;;
12869;SDS011;6503;48.572;13.460;2023-04-04T12:02:00;6.85;;;3.10;;
12869;SDS011;6503;48.572;13.460;2023-04-04T12:15:32;4.00;;;2.88;;
12869;SDS011;6503;48.572;13.460;2023-04-04T12:18:01;4.57;;;2.58;;
12869;SDS011;6503;48.572;13.460;2023-04-04T12:20:46;4.60;;;3.17;;
12869;SDS011;6503;48.572;13.460;2023-04-04T12:23:32;4.85;;;2.78;;
12869;SDS011;6503;48.572;13.460;2023-04-04T12:26:01;5.40;;;3.25;;
12869;SDS011;6503;48.572;13.460;2023-04-04T12:28:44;6.43;;;2.92;;
12869;SDS011;6503;48.572;13.460;2023-04-04T12:40:41;2.92;;;2.50;;
12869;SDS011;6503;48.572;13.460;2023-04-04T12:43:32;4.67;;;2.77;;
12869;SDS011;6503;48.572;13.460;2023-04-04T12:48:59;3.72;;;2.90;;
12869;SDS011;6503;48.572;13.460;2023-04-04T12:51:38;3.22;;;2.58;;
12869;SDS011;6503;48.572;13.460;2023-04-04T12:57:19;6.00;;;3.15;;
12869;SDS011;6503;48.572;13.460;2023-04-04T12:59:52;4.75;;;3.00;;
12869;SDS011;6503;48.572;13.460;2023-04-04T13:02:38;6.47;;;3.05;;
12869;SDS011;6503;48.572;13.460;2023-04-04T13:05:16;4.60;;;2.88;;
12869;SDS011;6503;48.572;13.460;2023-04-04T13:17:54;4.38;;;2.70;;
12869;SDS011;6503;48.572;13.460;2023-04-04T13:20:35;4.88;;;2.90;;
12869;SDS011;6503;48.572;13.460;2023-04-04T13:26:23;5.32;;;3.13;;
12869;SDS011;6503;48.572;13.460;2023-04-04T13:32:02;4.20;;;2.78;;
12869;SDS011;6503;48.572;13.460;2023-04-04T13:34:35;4.47;;;2.35;;
12869;SDS011;6503;48.572;13.460;2023-04-04T13:37:11;4.63;;;2.45;;
12869;SDS011;6503;48.572;13.460;2023-04-04T13:39:56;5.05;;;2.75;;
12869;SDS011;6503;48.572;13.460;2023-04-04T13:45:12;5.47;;;3.10;;
12869;SDS011;6503;48.572;13.460;2023-04-04T13:47:48;5.28;;;2.88;;
12869;SDS011;6503;48.572;13.460;2023-04-04T14:03:01;5.90;;;3.03;;
12869;SDS011;6503;48.572;13.460;2023-04-04T14:05:28;7.00;;;3.20;;
12869;SDS011;6503;48.572;13.460;2023-04-04T14:08:02;3.65;;;2.83;;
12869;SDS011;6503;48.572;13.460;2023-04-04T14:10:46;3.60;;;2.95;;
12869;SDS011;6503;48.572;13.460;2023-04-04T14:13:27;5.60;;;3.08;;
12869;SDS011;6503;48.572;13.460;2023-04-04T14:16:11;4.28;;;3.15;;
12869;SDS011;6503;48.572;13.460;2023-04-04T14:22:06;7.00;;;3.03;;
12869;SDS011;6503;48.572;13.460;2023-04-04T14:24:48;4.05;;;2.95;;
12869;SDS011;6503;48.572;13.460;2023-04-04T14:27:37;5.45;;;3.45;;
12869;SDS011;6503;48.572;13.460;2023-04-04T14:33:05;7.80;;;2.95;;
12869;SDS011;6503;48.572;13.460;2023-04-04T14:35:43;4.43;;;2.97;;
12869;SDS011;6503;48.572;13.460;2023-04-04T14:41:04;6.40;;;3.13;;
12869;SDS011;6503;48.572;13.460;2023-04-04T14:43:53;5.15;;;3.22;;
12869;SDS011;6503;48.572;13.460;2023-04-04T14:46:49;4.65;;;3.03;;
12869;SDS011;6503;48.572;13.460;2023-04-04T14:52:33;4.72;;;2.95;;
12869;SDS011;6503;48.572;13.460;2023-04-04T14:55:21;4.78;;;3.15;;
12869;SDS011;6503;48.572;13.460;2023-04-04T14:58:05;3.95;;;2.85;;
12869;SDS011;6503;48.572;13.460;2023-04-04T15:03:46;6.70;;;4.90;;
12869;SDS011;6503;48.572;13.460;2023-04-04T15:06:31;5.25;;;3.75;;
12869;SDS011;6503;48.572;13.460;2023-04-04T15:09:08;5.00;;;3.00;;
12869;SDS011;6503;48.572;13.460;2023-04-04T15:11:50;4.68;;;2.95;;
12869;SDS011;6503;48.572;13.460;2023-04-04T15:20:21;8.32;;;3.30;;
12869;SDS011;6503;48.572;13.460;2023-04-04T15:23:02;6.78;;;3.47;;
12869;SDS011;6503;48.572;13.460;2023-04-04T15:25:30;4.90;;;3.05;;
12869;SDS011;6503;48.572;13.460;2023-04-04T15:28:12;4.90;;;3.55;;
12869;SDS011;6503;48.572;13.460;2023-04-04T15:33:47;4.85;;;2.90;;
12869;SDS011;6503;48.572;13.460;2023-04-04T15:36:30;4.80;;;3.15;;
12869;SDS011;6503;48.572;13.460;2023-04-04T15:38:59;6.13;;;3.40;;
12869;SDS011;6503;48.572;13.460;2023-04-04T15:41:31;4.28;;;2.70;;
12869;SDS011;6503;48.572;13.460;2023-04-04T15:43:58;5.03;;;3.10;;
12869;SDS011;6503;48.572;13.460;2023-04-04T15:46:27;6.13;;;3.53;;
12869;SDS011;6503;48.572;13.460;2023-04-04T15:57:24;8.02;;;3.08;;
12869;SDS011;6503;48.572;13.460;2023-04-04T15:59:52;5.72;;;3.13;;
12869;SDS011;6503;48.572;13.460;2023-04-04T16:04:50;5.53;;;2.83;;
12869;SDS011;6503;48.572;13.460;2023-04-04T16:12:40;4.55;;;2.58;;
12869;SDS011;6503;48.572;13.460;2023-04-04T16:15:09;4.97;;;2.80;;
12869;SDS011;6503;48.572;13.460;2023-04-04T16:17:39;3.20;;;2.90;;
12869;SDS011;6503;48.572;13.460;2023-04-04T16:20:10;4.70;;;2.95;;
12869;SDS011;6503;48.572;13.460;2023-04-04T16:22:38;3.97;;;3.15;;
12869;SDS011;6503;48.572;13.460;2023-04-04T16:25:07;5.47;;;3.70;;
12869;SDS011;6503;48.572;13.460;2023-04-04T16:27:35;6.25;;;3.63;;
12869;SDS011;6503;48.572;13.460;2023-04-04T16:30:06;6.70;;;3.88;;
12869;SDS011;6503;48.572;13.460;2023-04-04T16:32:37;5.45;;;3.40;;
12869;SDS011;6503;48.572;13.460;2023-04-04T16:35:06;5.25;;;3.80;;
12869;SDS011;6503;48.572;13.460;2023-04-04T16:37:34;9.48;;;3.97;;
12869;SDS011;6503;48.572;13.460;2023-04-04T16:40:06;6.38;;;3.92;;
12869;SDS011;6503;48.572;13.460;2023-04-04T16:42:39;7.25;;;3.85;;
12869;SDS011;6503;48.572;13.460;2023-04-04T17:01:16;8.52;;;4.78;;
12869;SDS011;6503;48.572;13.460;2023-04-04T17:09:07;10.25;;;4.63;;
12869;SDS011;6503;48.572;13.460;2023-04-04T17:14:13;6.07;;;3.92;;
12869;SDS011;6503;48.572;13.460;2023-04-04T17:16:47;6.40;;;4.18;;
12869;SDS011;6503;48.572;13.460;2023-04-04T17:19:27;5.65;;;3.95;;
12869;SDS011;6503;48.572;13.460;2023-04-04T17:21:58;6.00;;;3.75;;
12869;SDS011;6503;48.572;13.460;2023-04-04T17:24:33;6.50;;;3.75;;
12869;SDS011;6503;48.572;13.460;2023-04-04T17:27:05;7.10;;;3.53;;
12869;SDS011;6503;48.572;13.460;2023-04-04T17:29:33;5.60;;;3.30;;
12869;SDS011;6503;48.572;13.460;2023-04-04T17:32:04;5.65;;;3.33;;
12869;SDS011;6503;48.572;13.460;2023-04-04T17:34:42;3.70;;;2.67;;
12869;SDS011;6503;48.572;13.460;2023-04-04T17:37:14;7.93;;;3.20;;
12869;SDS011;6503;48.572;13.460;2023-04-04T17:39:51;5.95;;;3.25;;
12869;SDS011;6503;48.572;13.460;2023-04-04T17:42:19;5.63;;;3.50;;
12869;SDS011;6503;48.572;13.460;2023-04-04T17:47:44;4.22;;;2.92;;
12869;SDS011;6503;48.572;13.460;2023-04-04T17:50:23;8.13;;;5.15;;
12869;SDS011;6503;48.572;13.460;2023-04-04T17:52:59;6.07;;;3.40;;
12869;SDS011;6503;48.572;13.460;2023-04-04T17:58:16;4.05;;;2.95;;
12869;SDS011;6503;48.572;13.460;2023-04-04T18:00:53;6.35;;;3.30;;
12869;SDS011;6503;48.572;13.460;2023-04-04T18:05:56;4.57;;;3.55;;
12869;SDS011;6503;48.572;13.460;2023-04-04T18:11:05;7.47;;;3.83;;
12869;SDS011;6503;48.572;13.460;2023-04-04T18:13:38;6.35;;;3.55;;
12869;SDS011;6503;48.572;13.460;2023-04-04T18:18:45;6.43;;;3.58;;
12869;SDS011;6503;48.572;13.460;2023-04-04T18:21:14;6.70;;;3.67;;
12869;SDS011;6503;48.572;13.460;2023-04-04T18:23:45;5.53;;;3.88;;
12869;SDS011;6503;48.572;13.460;2023-04-04T18:26:16;7.53;;;4.22;;
12869;SDS011;6503;48.572;13.460;2023-04-04T18:28:43;6.57;;;4.20;;
12869;SDS011;6503;48.572;13.460;2023-04-04T18:31:11;8.35;;;3.70;;
12869;SDS011;6503;48.572;13.460;2023-04-04T18:33:39;7.45;;;4.10;;
12869;SDS011;6503;48.572;13.460;2023-04-04T18:36:06;6.15;;;3.70;;
12869;SDS011;6503;48.572;13.460;2023-04-04T18:38:49;6.30;;;4.00;;
12869;SDS011;6503;48.572;13.460;2023-04-04T18:41:21;6.47;;;3.30;;
12869;SDS011;6503;48.572;13.460;2023-04-04T18:43:48;5.85;;;3.97;;
12869;SDS011;6503;48.572;13.460;2023-04-04T18:46:16;6.07;;;3.72;;
12869;SDS011;6503;48.572;13.460;2023-04-04T18:48:43;6.68;;;3.50;;
12869;SDS011;6503;48.572;13.460;2023-04-04T18:51:11;7.03;;;3.72;;
12869;SDS011;6503;48.572;13.460;2023-04-04T18:53:38;6.75;;;4.05;;
12869;SDS011;6503;48.572;13.460;2023-04-04T18:56:07;6.20;;;4.25;;
12869;SDS011;6503;48.572;13.460;2023-04-04T18:58:36;5.70;;;3.88;;
12869;SDS011;6503;48.572;13.460;2023-04-04T19:01:08;6.63;;;4.75;;
12869;SDS011;6503;48.572;13.460;2023-04-04T19:03:41;6.15;;;4.38;;
12869;SDS011;6503;48.572;13.460;2023-04-04T19:06:11;7.95;;;5.07;;
12869;SDS011;6503;48.572;13.460;2023-04-04T19:08:40;6.37;;;4.47;;
12869;SDS011;6503;48.572;13.460;2023-04-04T19:11:10;7.35;;;4.18;;
12869;SDS011;6503;48.572;13.460;2023-04-04T19:13:39;6.63;;;4.05;;
12869;SDS011;6503;48.572;13.460;2023-04-04T19:16:07;8.77;;;4.75;;
12869;SDS011;6503;48.572;13.460;2023-04-04T19:18:34;11.20;;;5.22;;
12869;SDS011;6503;48.572;13.460;2023-04-04T19:21:02;8.00;;;4.03;;
12869;SDS011;6503;48.572;13.460;2023-04-04T19:23:31;7.40;;;3.97;;
12869;SDS011;6503;48.572;13.460;2023-04-04T19:26:08;7.88;;;4.55;;
12869;SDS011;6503;48.572;13.460;2023-04-04T19:28:39;6.55;;;3.92;;
12869;SDS011;6503;48.572;13.460;2023-04-04T19:31:36;6.03;;;4.10;;
12869;SDS011;6503;48.572;13.460;2023-04-04T19:34:16;7.45;;;4.28;;
12869;SDS011;6503;48.572;13.460;2023-04-04T19:36:44;8.73;;;4.60;;
12869;SDS011;6503;48.572;13.460;2023-04-04T19:39:14;8.10;;;4.60;;
12869;SDS011;6503;48.572;13.460;2023-04-04T19:41:49;7.30;;;4.32;;
12869;SDS011;6503;48.572;13.460;2023-04-04T19:44:19;8.15;;;4.68;;
12869;SDS011;6503;48.572;13.460;2023-04-04T19:46:53;7.90;;;4.75;;
12869;SDS011;6503;48.572;13.460;2023-04-04T19:49:34;10.77;;;5.07;;
12869;SDS011;6503;48.572;13.460;2023-04-04T19:52:15;7.60;;;5.30;;
12869;SDS011;6503;48.572;13.460;2023-04-04T19:54:53;8.02;;;4.65;;
12869;SDS011;6503;48.572;13.460;2023-04-04T19:57:31;6.28;;;4.75;;
12869;SDS011;6503;48.572;13.460;2023-04-04T20:02:57;8.40;;;5.57;;
12869;SDS011;6503;48.572;13.460;2023-04-04T20:06:03;7.43;;;5.50;;
12869;SDS011;6503;48.572;13.460;2023-04-04T20:08:48;6.70;;;4.68;;
12869;SDS011;6503;48.572;13.460;2023-04-04T20:11:16;9.63;;;5.60;;
12869;SDS011;6503;48.572;13.460;2023-04-04T20:13:44;6.35;;;4.57;;
12869;SDS011;6503;48.572;13.460;2023-04-04T20:16:12;7.03;;;4.88;;
12869;SDS011;6503;48.572;13.460;2023-04-04T20:18:43;8.48;;;5.20;;
12869;SDS011;6503;48.572;13.460;2023-04-04T20:21:12;9.57;;;5.57;;
12869;SDS011;6503;48.572;13.460;2023-04-04T20:23:45;12.65;;;5.60;;
12869;SDS011;6503;48.572;13.460;2023-04-04T20:28:58;9.48;;;5.75;;
12869;SDS011;6503;48.572;13.460;2023-04-04T20:31:40;8.32;;;5.30;;
12869;SDS011;6503;48.572;13.460;2023-04-04T20:36:53;8.57;;;5.55;;
12869;SDS011;6503;48.572;13.460;2023-04-04T20:39:32;10.05;;;6.00;;
12869;SDS011;6503;48.572;13.460;2023-04-04T20:42:03;7.78;;;5.25;;
12869;SDS011;6503;48.572;13.460;2023-04-04T20:44:40;7.93;;;5.30;;
12869;SDS011;6503;48.572;13.460;2023-04-04T20:47:26;7.63;;;5.68;;
12869;SDS011;6503;48.572;13.460;2023-04-04T20:49:54;7.43;;;4.85;;
12869;SDS011;6503;48.572;13.460;2023-04-04T20:52:23;7.95;;;5.25;;
12869;SDS011;6503;48.572;13.460;2023-04-04T20:54:51;9.15;;;5.38;;
12869;SDS011;6503;48.572;13.460;2023-04-04T20:57:22;9.15;;;5.20;;
12869;SDS011;6503;48.572;13.460;2023-04-04T20:59:51;8.77;;;5.93;;
12869;SDS011;6503;48.572;13.460;2023-04-04T21:02:19;8.70;;;5.43;;
12869;SDS011;6503;48.572;13.460;2023-04-04T21:05:03;7.97;;;5.30;;
12869;SDS011;6503;48.572;13.460;2023-04-04T21:07:41;10.82;;;5.80;;
12869;SDS011;6503;48.572;13.460;2023-04-04T21:10:19;8.45;;;5.45;;
12869;SDS011;6503;48.572;13.460;2023-04-04T21:15:31;6.32;;;5.10;;
12869;SDS011;6503;48.572;13.460;2023-04-04T21:18:10;9.23;;;5.53;;
12869;SDS011;6503;48.572;13.460;2023-04-04T21:23:28;7.85;;;5.50;;
12869;SDS011;6503;48.572;13.460;2023-04-04T21:25:58;7.82;;;5.72;;
12869;SDS011;6503;48.572;13.460;2023-04-04T21:28:26;16.02;;;6.03;;
12869;SDS011;6503;48.572;13.460;2023-04-04T21:33:46;9.13;;;5.47;;
12869;SDS011;6503;48.572;13.460;2023-04-04T21:36:24;9.43;;;5.95;;
12869;SDS011;6503;48.572;13.460;2023-04-04T21:38:57;9.27;;;5.63;;
12869;SDS011;6503;48.572;13.460;2023-04-04T21:41:25;10.88;;;5.55;;
12869;SDS011;6503;48.572;13.460;2023-04-04T21:44:03;8.30;;;5.85;;
12869;SDS011;6503;48.572;13.460;2023-04-04T21:46:32;8.13;;;6.00;;
12869;SDS011;6503;48.572;13.460;2023-04-04T21:49:00;9.88;;;6.28;;
12869;SDS011;6503;48.572;13.460;2023-04-04T21:51:35;9.02;;;6.15;;
12869;SDS011;6503;48.572;13.460;2023-04-04T21:54:04;7.93;;;5.60;;
12869;SDS011;6503;48.572;13.460;2023-04-04T21:56:31;8.02;;;5.38;;
12869;SDS011;6503;48.572;13.460;2023-04-04T21:59:04;6.53;;;4.85;;
12869;SDS011;6503;48.572;13.460;2023-04-04T22:01:32;7.95;;;4.78;;
12869;SDS011;6503;48.572;13.460;2023-04-04T22:04:00;6.93;;;4.68;;
12869;SDS011;6503;48.572;13.460;2023-04-04T22:06:27;9.35;;;4.93;;
12869;SDS011;6503;48.572;13.460;2023-04-04T22:09:09;8.50;;;5.18;;
12869;SDS011;6503;48.572;13.460;2023-04-04T22:11:41;7.55;;;5.15;;
12869;SDS011;6503;48.572;13.460;2023-04-04T22:16:41;7.35;;;5.15;;
12869;SDS011;6503;48.572;13.460;2023-04-04T22:19:15;7.55;;;4.70;;
12869;SDS011;6503;48.572;13.460;2023-04-04T22:21:57;7.55;;;4.50;;
12869;SDS011;6503;48.572;13.460;2023-04-04T22:24:25;10.35;;;4.65;;
12869;SDS011;6503;48.572;13.460;2023-04-04T22:26:53;7.73;;;4.90;;
12869;SDS011;6503;48.572;13.460;2023-04-04T22:29:22;7.65;;;5.07;;
12869;SDS011;6503;48.572;13.460;2023-04-04T22:31:51;7.82;;;5.22;;
12869;SDS011;6503;48.572;13.460;2023-04-04T22:34:20;9.63;;;5.85;;
12869;SDS011;6503;48.572;13.460;2023-04-04T22:36:47;10.18;;;5.50;;
12869;SDS011;6503;48.572;13.460;2023-04-04T22:39:19;8.63;;;4.80;;
12869;SDS011;6503;48.572;13.460;2023-04-04T22:41:51;10.98;;;5.45;;
12869;SDS011;6503;48.572;13.460;2023-04-04T22:44:22;9.20;;;5.68;;
12869;SDS011;6503;48.572;13.460;2023-04-04T22:46:51;7.13;;;4.85;;
12869;SDS011;6503;48.572;13.460;2023-04-04T22:49:22;8.85;;;5.20;;
12869;SDS011;6503;48.572;13.460;2023-04-04T22:51:49;7.45;;;5.38;;
12869;SDS011;6503;48.572;13.460;2023-04-04T22:54:19;10.23;;;5.40;;
12869;SDS011;6503;48.572;13.460;2023-04-04T22:56:46;9.35;;;5.55;;
12869;SDS011;6503;48.572;13.460;2023-04-04T22:59:15;8.52;;;6.00;;
12869;SDS011;6503;48.572;13.460;2023-04-04T23:01:43;9.35;;;6.03;;
12869;SDS011;6503;48.572;13.460;2023-04-04T23:04:11;9.63;;;4.97;;
12869;SDS011;6503;48.572;13.460;2023-04-04T23:06:39;8.55;;;5.88;;
12869;SDS011;6503;48.572;13.460;2023-04-04T23:09:09;8.95;;;5.68;;
12869;SDS011;6503;48.572;13.460;2023-04-04T23:11:39;11.73;;;5.75;;
12869;SDS011;6503;48.572;13.460;2023-04-04T23:14:09;7.60;;;4.82;;
12869;SDS011;6503;48.572;13.460;2023-04-04T23:16:43;8.15;;;5.13;;
12869;SDS011;6503;48.572;13.460;2023-04-04T23:19:13;11.35;;;5.93;;